Harbeson, Delaware
Current Conditions -  °F | °C
As of 10:54 PM on Wednesday 22 Oct 2014 (Local Time) from KGED Reporting Station
Overcast Overcast  
Wind Chill: 53°   Ceiling: 2700
Heat Index: 53°   Visibility: 10mi
Dew Point: 48°   Wind: 12mph
Humidity: 83%   Direction: 320°NW
Pressure: 29.81"   Gusts: 21mph
Location:  38.72°N, 75.29°W
Report Text: KGED 230254Z AUTO 32010G18KT 10SM SCT019 OVC027 12/09 A2981 RMK AO2 SLP095 60001 T01170089 58002
Loading
Personal Weather Stations






























Interactive Weather Map
Tropical Storm Tracking
New forecast layout! Learn more

10-Day Weather Forecast

Advertisements
Track Severe Weather on mobile